Capitol Logistics 1155


EBLG
Liège Airport
Liege, BE
GMMN
Mohammed V International Airport
Casablanca, MA

Route Details

Aircraft Information
Primary: Boeing 737-800BCF
Backup: Not Available
Route Data
Distance: 1185nm
Sched. Duration: 2h 45m
Avg. Duration: 3h 41m (+96m)
Times Flown: 1
Recm'd Route: Not Available
Planned Altitude: 36,000ft
Origin Wx: EBLG 291850Z 21016KT 9999 -RADZ FEW009 BKN012 11/10 Q1017 TEMPO BKN008
Dest. Wx: GMMN 291830Z 01005KT CAVOK 19/14 Q1020 NOSIG
Notes:

Financial History
Total Freight: 44,880lbs
Average Load: 44,880lbs/flt
Fuel Used: 20,150lbs
Avg. Fuel Used: 20,150lbs/flt
Fuel Expense: $22,367
Avg. Fuel Expense: $22,367
Avg. Fuel Cost: $1.11/lbs
Total Gross Income: $270,626
Pilot Pay: $229
Total Expenses: $29,280
Total Revenue: $218,137
Average Revenue: $270,626.41